Time;durP1;ratioP1;P1;durP2;ratioP2;P2;SDS_P1;SDS_P2;PMS_P1;PMS_P2;Temp;Humidity;BMP_temperature;BMP_pressure;BME280_temperature;BME280_humidity;BME280_pressure;Samples;Min_cycle;Max_cycle;Signal;HPM_P1;HPM_P2
2023/09/18 00:00:57;;;;;;;17.00;12.30;;;17.00;99.90;;;;;;5043423;28;20036;-69
2023/09/18 00:03:24;;;;;;;19.45;12.25;;;16.90;99.90;;;;;;5046365;28;20024;-69
2023/09/18 00:05:53;;;;;;;19.30;12.48;;;16.90;99.90;;;;;;5065600;28;20439;-69
2023/09/18 00:08:19;;;;;;;20.70;12.38;;;16.90;99.90;;;;;;5042539;28;20118;-69
2023/09/18 00:10:54;;;;;;;;;;;16.90;99.90;;;;;;5043172;28;20031;-69
2023/09/18 00:13:21;;;;;;;20.17;12.10;;;16.90;99.90;;;;;;5045606;28;19923;-69
2023/09/18 00:15:48;;;;;;;18.80;12.43;;;16.90;99.90;;;;;;5046030;28;20393;-69
2023/09/18 00:18:19;;;;;;;16.10;11.30;;;16.90;99.90;;;;;;5061123;28;20192;-69
2023/09/18 00:20:49;;;;;;;17.45;12.13;;;16.90;99.90;;;;;;5047631;28;20161;-69
2023/09/18 00:23:16;;;;;;;20.60;12.38;;;16.90;99.90;;;;;;5027998;28;20033;-69
2023/09/18 00:25:42;;;;;;;20.23;12.40;;;16.90;99.90;;;;;;5030239;28;20516;-69
2023/09/18 00:28:08;;;;;;;18.15;11.85;;;16.90;99.90;;;;;;5020958;28;20132;-69
2023/09/18 00:30:34;;;;;;;17.77;11.98;;;16.90;99.90;;;;;;5045051;28;20421;-69
2023/09/18 00:32:59;;;;;;;18.58;12.10;;;16.90;99.90;;;;;;5048346;28;20165;-69
2023/09/18 00:35:25;;;;;;;19.35;11.60;;;16.90;99.90;;;;;;5052384;28;20452;-69
2023/09/18 00:37:51;;;;;;;16.48;11.40;;;16.90;99.90;;;;;;5046683;28;20064;-69
2023/09/18 00:40:16;;;;;;;16.17;11.82;;;16.90;99.90;;;;;;5045021;28;20090;-69
2023/09/18 00:42:42;;;;;;;18.25;11.77;;;16.90;99.90;;;;;;5045243;28;20419;-69
2023/09/18 00:45:09;;;;;;;16.88;10.82;;;16.90;99.90;;;;;;5040585;28;20056;-69
2023/09/18 00:47:36;;;;;;;17.08;11.48;;;16.90;99.90;;;;;;5040923;28;20032;-69
2023/09/18 00:50:04;;;;;;;16.67;11.70;;;16.90;99.90;;;;;;5064166;28;20052;-69
2023/09/18 00:52:31;;;;;;;17.02;11.55;;;16.90;99.90;;;;;;5046664;28;20039;-69
2023/09/18 00:54:57;;;;;;;14.45;10.55;;;16.90;99.90;;;;;;5043902;28;20037;-69
2023/09/18 00:57:23;;;;;;;15.50;11.10;;;16.80;99.90;;;;;;5040065;28;20036;-69
2023/09/18 00:59:49;;;;;;;15.90;11.00;;;16.80;99.90;;;;;;5047625;28;20055;-69
2023/09/18 01:02:15;;;;;;;17.27;11.10;;;16.80;99.90;;;;;;5044506;28;20329;-69
2023/09/18 01:04:44;;;;;;;17.23;11.20;;;16.80;99.90;;;;;;5043769;28;20052;-69
2023/09/18 01:07:13;;;;;;;16.90;11.10;;;16.80;99.90;;;;;;5046691;28;20555;-72
2023/09/18 01:09:38;;;;;;;15.80;10.93;;;16.80;99.90;;;;;;5064971;28;20522;-72
2023/09/18 01:12:25;;;;;;;15.32;10.68;;;16.70;99.90;;;;;;5052025;28;20040;-72
2023/09/18 01:15:12;;;;;;;16.50;11.13;;;16.70;99.90;;;;;;5040515;28;20581;-72
2023/09/18 01:17:41;;;;;;;16.02;10.95;;;16.70;99.90;;;;;;5048684;28;20472;-73
2023/09/18 01:20:11;;;;;;;18.42;10.50;;;16.70;99.90;;;;;;5049325;28;20051;-72
2023/09/18 01:22:37;;;;;;;17.98;12.07;;;16.70;99.90;;;;;;5052769;28;20530;-72
2023/09/18 01:25:04;;;;;;;16.40;11.38;;;16.70;99.90;;;;;;5054215;28;20048;-72
2023/09/18 01:27:29;;;;;;;14.30;9.98;;;16.70;99.90;;;;;;5066728;28;20048;-72
2023/09/18 01:29:55;;;;;;;16.35;11.02;;;16.80;99.90;;;;;;5032100;28;20416;-72
2023/09/18 01:32:26;;;;;;;15.27;10.48;;;16.70;99.90;;;;;;5045943;28;20052;-72
2023/09/18 01:34:54;;;;;;;14.88;10.98;;;16.80;99.90;;;;;;5028132;28;20295;-72
2023/09/18 01:37:24;;;;;;;17.55;11.23;;;16.80;99.90;;;;;;5055242;28;20056;-72
2023/09/18 01:39:51;;;;;;;17.70;11.93;;;16.70;99.90;;;;;;5030854;28;20424;-72
2023/09/18 01:42:17;;;;;;;17.50;11.18;;;16.80;99.90;;;;;;5066154;28;20032;-72
2023/09/18 01:44:43;;;;;;;;;;;16.70;99.90;;;;;;5043647;28;20086;-72
2023/09/18 01:47:12;;;;;;;15.55;10.07;;;16.70;99.90;;;;;;5050293;28;20179;-72
2023/09/18 01:49:39;;;;;;;17.08;10.63;;;16.70;99.90;;;;;;5050736;28;20078;-72
2023/09/18 01:52:07;;;;;;;16.83;11.02;;;16.70;99.90;;;;;;5047100;28;20040;-72
2023/09/18 01:54:33;;;;;;;18.00;10.65;;;16.70;99.90;;;;;;5033671;28;20071;-72
2023/09/18 01:57:02;;;;;;;15.68;10.52;;;16.70;99.90;;;;;;5046188;28;20040;-72
2023/09/18 01:59:28;;;;;;;16.08;11.13;;;16.80;99.90;;;;;;5050029;28;20044;-72
2023/09/18 02:01:54;;;;;;;14.95;10.82;;;16.80;99.90;;;;;;5039194;28;20048;-72
2023/09/18 02:04:21;;;;;;;17.80;11.40;;;16.80;99.90;;;;;;5048311;28;20052;-72
2023/09/18 02:06:49;;;;;;;18.60;12.00;;;16.80;99.90;;;;;;5033754;28;20077;-72
2023/09/18 02:09:15;;;;;;;17.15;11.70;;;16.80;99.90;;;;;;5068654;28;20084;-72
2023/09/18 02:11:42;;;;;;;17.67;11.40;;;16.80;99.90;;;;;;5046160;28;20044;-72
2023/09/18 02:14:09;;;;;;;17.58;11.68;;;16.80;99.90;;;;;;5047573;28;20201;-72
2023/09/18 02:16:42;;;;;;;18.20;11.73;;;16.80;99.90;;;;;;5032315;28;20408;-72
2023/09/18 02:19:13;;;;;;;17.25;11.32;;;16.80;99.90;;;;;;5029677;28;20182;-72
2023/09/18 02:21:38;;;;;;;16.65;11.23;;;16.80;99.90;;;;;;5054934;28;20071;-72
2023/09/18 02:24:04;;;;;;;18.85;11.75;;;16.90;99.90;;;;;;5044990;28;20053;-72
2023/09/18 02:26:30;;;;;;;18.10;10.60;;;16.90;99.90;;;;;;5048817;28;20581;-72
2023/09/18 02:28:59;;;;;;;15.77;10.82;;;16.90;99.90;;;;;;5075088;28;20202;-72
2023/09/18 02:31:28;;;;;;;17.70;10.95;;;16.90;99.90;;;;;;5047756;28;20048;-73
2023/09/18 02:33:53;;;;;;;16.85;10.55;;;16.90;99.90;;;;;;5044249;28;20117;-74
2023/09/18 02:36:19;;;;;;;15.23;10.48;;;16.90;99.90;;;;;;5021490;28;20082;-73
2023/09/18 02:38:45;;;;;;;14.77;10.98;;;16.90;99.90;;;;;;5034757;28;20048;-72
2023/09/18 02:41:10;;;;;;;15.35;10.35;;;17.00;99.90;;;;;;5041326;28;20056;-72
2023/09/18 02:43:39;;;;;;;17.48;9.98;;;16.90;99.90;;;;;;5043654;28;20070;-72
2023/09/18 02:46:06;;;;;;;18.98;11.10;;;16.90;99.90;;;;;;5033344;28;20571;-72
2023/09/18 02:48:32;;;;;;;16.48;10.70;;;16.90;99.90;;;;;;5037866;28;20041;-72
2023/09/18 02:51:02;;;;;;;15.32;10.23;;;17.00;99.90;;;;;;5028784;28;20048;-72
2023/09/18 02:53:27;;;;;;;17.80;10.68;;;17.00;99.90;;;;;;5038662;28;20048;-72
2023/09/18 02:55:58;;;;;;;15.93;10.38;;;17.00;99.90;;;;;;5048561;28;20040;-72
2023/09/18 02:58:29;;;;;;;19.52;10.13;;;17.00;99.90;;;;;;5038766;28;20048;-72
2023/09/18 03:00:59;;;;;;;17.70;11.40;;;17.00;99.90;;;;;;5036612;28;20036;-72
2023/09/18 03:03:25;;;;;;;17.50;11.30;;;17.00;99.90;;;;;;5053771;28;20637;-72
2023/09/18 03:05:51;;;;;;;15.00;10.80;;;17.00;99.90;;;;;;5050284;28;20055;-72
2023/09/18 03:08:17;;;;;;;18.02;11.38;;;17.00;99.90;;;;;;5046646;28;20420;-72
2023/09/18 03:10:43;;;;;;;17.25;10.98;;;17.00;99.90;;;;;;5043991;28;20036;-72
2023/09/18 03:13:12;;;;;;;18.33;12.13;;;17.10;99.90;;;;;;5069192;28;20045;-72
2023/09/18 03:15:38;;;;;;;15.50;11.35;;;17.00;99.90;;;;;;5045212;28;20047;-73
2023/09/18 03:18:06;;;;;;;17.45;10.55;;;17.10;99.90;;;;;;5062666;28;20392;-72
2023/09/18 03:20:32;;;;;;;16.52;11.45;;;17.10;99.90;;;;;;5066023;28;20052;-72
2023/09/18 03:23:00;;;;;;;17.48;11.75;;;17.10;99.90;;;;;;5043642;28;20074;-73
2023/09/18 03:25:26;;;;;;;16.13;10.57;;;17.10;99.90;;;;;;5033009;28;20047;-72
2023/09/18 03:27:54;;;;;;;15.50;11.27;;;17.10;99.90;;;;;;5046610;28;20060;-72
2023/09/18 03:30:20;;;;;;;14.90;10.40;;;17.10;99.90;;;;;;5048735;28;20043;-73
2023/09/18 03:32:48;;;;;;;17.60;10.90;;;17.10;99.90;;;;;;5067357;28;20032;-72
2023/09/18 03:35:18;;;;;;;18.48;11.65;;;17.10;99.90;;;;;;5066159;28;20065;-72
2023/09/18 03:37:44;;;;;;;16.83;10.80;;;17.10;99.90;;;;;;5043009;28;20420;-72
2023/09/18 03:40:10;;;;;;;19.33;11.95;;;17.10;99.90;;;;;;5048534;28;20431;-72
2023/09/18 03:42:36;;;;;;;16.55;11.13;;;17.20;99.90;;;;;;5032307;28;20041;-72
2023/09/18 03:45:03;;;;;;;18.10;11.35;;;17.20;99.90;;;;;;5062347;28;20051;-72
2023/09/18 03:47:31;;;;;;;18.52;12.02;;;17.20;99.90;;;;;;5047000;28;20048;-72
2023/09/18 03:49:59;;;;;;;18.80;11.63;;;17.20;99.90;;;;;;5065856;28;20072;-72
2023/09/18 03:52:27;;;;;;;15.85;10.93;;;17.30;99.90;;;;;;5060388;28;20041;-72
2023/09/18 03:54:53;;;;;;;17.90;11.98;;;17.30;99.90;;;;;;5068242;28;20095;-72
2023/09/18 03:57:21;;;;;;;19.73;11.68;;;17.30;99.90;;;;;;5045099;28;20091;-72
2023/09/18 03:59:46;;;;;;;16.13;11.18;;;17.30;99.90;;;;;;5050843;28;20131;-73
2023/09/18 04:02:12;;;;;;;17.90;12.07;;;17.30;99.90;;;;;;5065526;28;20127;-72
2023/09/18 04:04:38;;;;;;;18.63;11.43;;;17.30;99.90;;;;;;5064560;28;20032;-72
2023/09/18 04:07:08;;;;;;;17.13;11.85;;;17.30;99.90;;;;;;5045898;28;20127;-72
2023/09/18 04:09:34;;;;;;;22.00;12.30;;;17.30;99.90;;;;;;5048706;28;20083;-72
2023/09/18 04:12:01;;;;;;;18.52;11.77;;;17.40;99.90;;;;;;5027019;28;20459;-72
2023/09/18 04:14:27;;;;;;;18.33;11.20;;;17.40;99.90;;;;;;5048141;28;20124;-72
2023/09/18 04:16:52;;;;;;;15.63;10.95;;;17.40;99.90;;;;;;5063902;28;20037;-72
2023/09/18 04:19:18;;;;;;;17.63;11.02;;;17.40;99.90;;;;;;5051061;28;20040;-72
2023/09/18 04:21:44;;;;;;;18.67;11.18;;;17.50;99.90;;;;;;5038512;28;20037;-72
2023/09/18 04:24:10;;;;;;;16.42;11.45;;;17.50;99.90;;;;;;5047369;28;20075;-72
2023/09/18 04:26:37;;;;;;;17.08;11.55;;;17.50;99.90;;;;;;5065152;28;20067;-72
2023/09/18 04:29:03;;;;;;;19.23;11.48;;;17.50;99.90;;;;;;5032313;28;20519;-72
2023/09/18 04:31:30;;;;;;;15.88;11.23;;;17.50;99.90;;;;;;5062006;28;20078;-72
2023/09/18 04:33:55;;;;;;;18.58;11.45;;;17.50;99.90;;;;;;5045809;28;20449;-72
2023/09/18 04:36:21;;;;;;;15.13;10.73;;;17.60;99.90;;;;;;5048236;28;20044;-72
2023/09/18 04:38:47;;;;;;;18.70;10.80;;;17.60;99.90;;;;;;5046967;28;20048;-71
2023/09/18 04:41:14;;;;;;;16.60;10.82;;;17.50;99.90;;;;;;5072237;28;20194;-72
2023/09/18 04:43:42;;;;;;;17.00;10.85;;;17.60;99.90;;;;;;5047993;28;20505;-79
2023/09/18 04:46:08;;;;;;;18.88;10.60;;;17.60;99.90;;;;;;5050539;28;21361;-76
2023/09/18 04:48:34;;;;;;;14.15;9.85;;;17.60;99.90;;;;;;5043680;28;20036;-71
2023/09/18 04:51:01;;;;;;;17.30;10.90;;;17.60;99.90;;;;;;5068155;28;20045;-73
2023/09/18 04:53:31;;;;;;;15.35;9.90;;;17.60;99.90;;;;;;5031523;28;20040;-71
2023/09/18 04:55:57;;;;;;;15.85;10.32;;;17.60;99.90;;;;;;5073672;28;20493;-71
2023/09/18 04:58:23;;;;;;;;;;;17.60;99.90;;;;;;5059770;28;20043;-71
2023/09/18 05:00:59;;;;;;;17.13;9.63;;;17.70;99.90;;;;;;5037282;28;19966;-71
2023/09/18 05:03:26;;;;;;;16.17;9.73;;;17.60;99.90;;;;;;5051888;28;20068;-71
2023/09/18 05:05:55;;;;;;;17.05;10.40;;;17.70;99.90;;;;;;5055760;28;20053;-71
2023/09/18 05:08:21;;;;;;;16.15;10.10;;;17.70;99.90;;;;;;5035894;28;20128;-71
2023/09/18 05:10:47;;;;;;;12.15;8.38;;;17.70;99.90;;;;;;5043372;28;20061;-70
2023/09/18 05:13:13;;;;;;;14.93;9.05;;;17.70;99.90;;;;;;5046849;28;20052;-70
2023/09/18 05:15:39;;;;;;;15.73;9.95;;;17.70;99.90;;;;;;5068119;28;20416;-70
2023/09/18 05:18:05;;;;;;;15.55;9.48;;;17.70;99.90;;;;;;5028391;28;20041;-71
2023/09/18 05:20:31;;;;;;;13.05;8.93;;;17.70;99.90;;;;;;5046354;28;20500;-70
2023/09/18 05:22:58;;;;;;;14.80;9.52;;;17.70;99.90;;;;;;5064184;28;20037;-70
2023/09/18 05:25:31;;;;;;;13.63;9.52;;;17.70;99.90;;;;;;5046375;28;21309;-70
2023/09/18 05:27:59;;;;;;;12.35;9.27;;;17.70;99.90;;;;;;5065637;28;20048;-70
2023/09/18 05:30:34;;;;;;;15.15;9.25;;;17.70;99.90;;;;;;5050840;28;20088;-72
2023/09/18 05:33:06;;;;;;;13.73;8.52;;;17.80;99.90;;;;;;5044867;28;20037;-70
2023/09/18 05:35:36;;;;;;;14.95;9.07;;;17.80;99.90;;;;;;5063262;28;20093;-70
2023/09/18 05:38:03;;;;;;;15.88;9.10;;;17.80;99.90;;;;;;5051158;28;20408;-70
2023/09/18 05:40:31;;;;;;;12.02;9.25;;;17.80;99.90;;;;;;5030232;28;20052;-70
2023/09/18 05:42:57;;;;;;;12.50;8.70;;;17.80;99.90;;;;;;5050267;28;20044;-70
2023/09/18 05:45:26;;;;;;;15.80;10.10;;;17.80;99.90;;;;;;5070198;28;20051;-71
2023/09/18 05:48:05;;;;;;;14.55;9.55;;;17.80;99.90;;;;;;5067739;28;20051;-76
2023/09/18 05:50:37;;;;;;;16.20;8.82;;;17.80;99.90;;;;;;5040303;28;20052;-71
2023/09/18 05:53:06;;;;;;;14.98;9.02;;;17.90;99.90;;;;;;5045703;28;20032;-71
2023/09/18 05:55:33;;;;;;;16.50;8.93;;;17.90;99.90;;;;;;5070077;28;20044;-73
2023/09/18 05:57:59;;;;;;;15.35;9.48;;;17.90;99.90;;;;;;5030836;28;20041;-73
2023/09/18 06:00:25;;;;;;;12.65;8.25;;;17.90;99.90;;;;;;5072577;28;20047;-73
2023/09/18 06:02:51;;;;;;;12.50;8.85;;;17.90;99.90;;;;;;5033245;28;20557;-72
2023/09/18 06:05:18;;;;;;;14.15;8.82;;;18.00;99.90;;;;;;5064684;28;20040;-68
2023/09/18 06:07:46;;;;;;;13.85;8.57;;;18.00;99.90;;;;;;5036449;28;20208;-69
2023/09/18 06:10:13;;;;;;;11.57;8.38;;;18.00;99.90;;;;;;5049201;28;20127;-73
2023/09/18 06:12:39;;;;;;;13.25;8.07;;;18.10;99.90;;;;;;5048251;28;20484;-74
2023/09/18 06:15:09;;;;;;;15.88;8.55;;;18.10;99.90;;;;;;5033844;28;20286;-70
2023/09/18 06:17:36;;;;;;;13.25;8.07;;;18.10;99.90;;;;;;5051670;28;20510;-77
2023/09/18 06:20:04;;;;;;;15.50;7.57;;;18.10;99.90;;;;;;5032152;28;20045;-71
2023/09/18 06:22:29;;;;;;;15.80;8.07;;;18.20;99.90;;;;;;5030807;28;20040;-70
2023/09/18 06:24:55;;;;;;;14.35;8.27;;;18.20;99.90;;;;;;5046359;28;20060;-71
2023/09/18 06:27:21;;;;;;;18.55;8.52;;;18.20;99.90;;;;;;5036966;28;20049;-71
2023/09/18 06:29:46;;;;;;;14.68;9.18;;;18.20;99.90;;;;;;5046337;28;20507;-72
2023/09/18 06:32:12;;;;;;;18.20;8.82;;;18.30;99.90;;;;;;5033944;28;20044;-71
2023/09/18 06:34:42;;;;;;;17.15;8.90;;;18.30;99.90;;;;;;5046371;28;20032;-71
2023/09/18 06:37:10;;;;;;;15.65;8.90;;;18.30;99.90;;;;;;5020502;28;20036;-72
2023/09/18 06:39:40;;;;;;;13.55;8.85;;;18.30;99.90;;;;;;5042515;28;20044;-72
2023/09/18 06:42:06;;;;;;;16.67;10.15;;;18.40;99.90;;;;;;5045156;28;20037;-71
2023/09/18 06:44:32;;;;;;;18.23;9.60;;;18.40;99.90;;;;;;5046933;28;20067;-77
2023/09/18 06:46:58;;;;;;;15.77;8.80;;;18.40;99.90;;;;;;5040720;28;20132;-71
2023/09/18 06:49:27;;;;;;;14.60;9.00;;;18.50;99.90;;;;;;5047737;28;20072;-71
2023/09/18 06:51:55;;;;;;;15.32;10.02;;;18.50;99.90;;;;;;5049379;28;20044;-72
2023/09/18 06:54:21;;;;;;;19.80;9.48;;;18.40;99.90;;;;;;5043880;28;20415;-71
2023/09/18 06:56:47;;;;;;;14.73;8.48;;;18.50;99.90;;;;;;5040986;28;20059;-71
2023/09/18 06:59:13;;;;;;;;;;;18.50;99.90;;;;;;5042183;28;20067;-71
2023/09/18 07:01:40;;;;;;;16.02;8.38;;;18.60;99.90;;;;;;5046412;28;19916;-70
2023/09/18 07:04:05;;;;;;;14.00;8.07;;;18.50;99.90;;;;;;5042215;28;20052;-70
2023/09/18 07:06:31;;;;;;;13.75;7.80;;;18.60;99.90;;;;;;5044904;28;20056;-70
2023/09/18 07:08:56;;;;;;;12.15;7.80;;;18.50;99.90;;;;;;5062999;28;20520;-70
2023/09/18 07:11:22;;;;;;;13.95;7.78;;;18.50;99.90;;;;;;5042939;28;20052;-71
2023/09/18 07:13:48;;;;;;;14.13;7.88;;;18.50;99.90;;;;;;5045155;28;20064;-70
2023/09/18 07:16:13;;;;;;;14.60;7.72;;;18.50;99.90;;;;;;5044049;28;20474;-71
2023/09/18 07:18:39;;;;;;;12.73;7.40;;;18.50;99.90;;;;;;5040877;28;20037;-70
2023/09/18 07:21:05;;;;;;;13.85;8.70;;;18.50;99.90;;;;;;5042206;28;20032;-70
2023/09/18 07:23:31;;;;;;;10.68;7.35;;;18.50;99.90;;;;;;5063460;28;20080;-70
2023/09/18 07:25:57;;;;;;;11.82;7.38;;;18.50;99.90;;;;;;5030660;28;20275;-71
2023/09/18 07:28:24;;;;;;;11.85;6.05;;;18.50;99.90;;;;;;5051314;28;20051;-71
2023/09/18 07:30:50;;;;;;;14.00;6.32;;;18.50;99.90;;;;;;5037878;28;20236;-71
2023/09/18 07:33:19;;;;;;;11.45;6.20;;;18.50;99.90;;;;;;5044933;28;20047;-70
2023/09/18 07:35:51;;;;;;;11.57;5.95;;;18.50;99.90;;;;;;5065325;28;20055;-70
2023/09/18 07:38:19;;;;;;;8.70;5.97;;;18.50;99.90;;;;;;5040933;28;20063;-71
2023/09/18 07:40:46;;;;;;;12.40;6.72;;;18.50;99.90;;;;;;5038816;28;20071;-70
2023/09/18 07:43:12;;;;;;;11.45;6.72;;;18.50;99.90;;;;;;5040950;28;20295;-70
2023/09/18 07:45:40;;;;;;;12.20;7.03;;;18.50;99.90;;;;;;5044555;28;21006;-70
2023/09/18 07:48:07;;;;;;;9.10;6.18;;;18.50;99.90;;;;;;5045097;28;20432;-71
2023/09/18 07:50:34;;;;;;;12.10;6.45;;;18.40;99.90;;;;;;5035861;28;20079;-71
2023/09/18 07:53:00;;;;;;;11.48;5.68;;;18.50;99.90;;;;;;5045494;28;20494;-71
2023/09/18 07:55:26;;;;;;;8.60;5.55;;;18.50;99.90;;;;;;5058923;28;20054;-71
2023/09/18 07:57:52;;;;;;;8.65;5.38;;;18.50;99.90;;;;;;5042163;28;20119;-70
2023/09/18 08:00:18;;;;;;;11.15;5.80;;;18.40;99.90;;;;;;5067095;28;20584;-70
2023/09/18 08:02:44;;;;;;;10.02;6.63;;;18.50;99.90;;;;;;5044664;28;20479;-70
2023/09/18 08:05:10;;;;;;;11.95;6.40;;;18.50;99.90;;;;;;5030784;28;20044;-70
2023/09/18 08:07:36;;;;;;;9.30;5.65;;;18.40;99.90;;;;;;5061880;28;20076;-70
2023/09/18 08:10:08;;;;;;;10.65;5.22;;;18.50;99.90;;;;;;5031440;28;20048;-71
2023/09/18 08:12:34;;;;;;;15.35;6.55;;;18.50;99.90;;;;;;5070804;28;20040;-70
2023/09/18 08:15:00;;;;;;;12.27;6.00;;;18.50;99.90;;;;;;5043112;28;20044;-71
2023/09/18 08:17:25;;;;;;;12.68;6.28;;;18.50;99.90;;;;;;5040538;28;20045;-70
2023/09/18 08:19:53;;;;;;;9.85;5.43;;;18.50;99.90;;;;;;5039317;28;20048;-71
2023/09/18 08:22:20;;;;;;;8.65;5.40;;;18.50;99.90;;;;;;5042580;28;20044;-71
2023/09/18 08:24:52;;;;;;;8.75;5.50;;;18.50;99.90;;;;;;5043285;28;20516;-70
2023/09/18 08:27:18;;;;;;;12.18;5.47;;;18.50;99.90;;;;;;5045903;28;20063;-71
2023/09/18 08:29:44;;;;;;;;;;;18.50;99.90;;;;;;5058968;28;20040;-72
2023/09/18 08:32:10;;;;;;;10.15;5.30;;;18.50;99.90;;;;;;5056775;28;19928;-71
2023/09/18 08:34:35;;;;;;;8.82;5.18;;;18.60;99.90;;;;;;5044479;28;20276;-71
2023/09/18 08:37:02;;;;;;;7.68;5.10;;;18.60;99.90;;;;;;5043324;28;20045;-72
2023/09/18 08:39:28;;;;;;;11.35;5.65;;;18.60;99.90;;;;;;5044876;28;20041;-71
2023/09/18 08:41:59;;;;;;;10.45;6.03;;;18.60;99.90;;;;;;5035591;28;20078;-71
2023/09/18 08:44:27;;;;;;;12.50;6.15;;;18.60;99.90;;;;;;5045708;28;20214;-71
2023/09/18 08:46:56;;;;;;;8.98;5.43;;;18.70;99.90;;;;;;5039688;28;20330;-71
2023/09/18 08:49:26;;;;;;;9.52;5.90;;;18.80;99.90;;;;;;5031798;28;20033;-71
2023/09/18 08:51:54;;;;;;;10.10;5.80;;;18.80;99.90;;;;;;5073022;28;20545;-71
2023/09/18 08:54:23;;;;;;;11.13;5.70;;;18.80;99.90;;;;;;5062503;28;20117;-71
2023/09/18 08:56:50;;;;;;;8.60;5.35;;;18.90;99.90;;;;;;5045812;28;20075;-72
2023/09/18 08:59:16;;;;;;;10.75;6.30;;;19.00;99.90;;;;;;5066537;28;20402;-72
2023/09/18 09:01:42;;;;;;;14.70;6.35;;;19.00;99.90;;;;;;5045321;28;20044;-71
2023/09/18 09:04:07;;;;;;;11.02;6.00;;;19.10;99.90;;;;;;5047449;28;20040;-71
2023/09/18 09:06:33;;;;;;;8.38;5.40;;;19.10;99.90;;;;;;5045459;28;20555;-74
2023/09/18 09:08:59;;;;;;;10.32;6.15;;;19.10;99.90;;;;;;5041968;28;20036;-79
2023/09/18 09:11:24;;;;;;;10.18;6.47;;;19.10;99.90;;;;;;5044566;28;20398;-82
2023/09/18 09:14:17;;;;;;;10.07;5.82;;;19.10;99.90;;;;;;5049637;28;20465;-72
2023/09/18 09:16:50;;;;;;;9.45;5.72;;;19.20;99.90;;;;;;5038785;28;20163;-73
2023/09/18 09:19:17;;;;;;;9.93;5.28;;;19.20;99.90;;;;;;5042149;28;20527;-71
2023/09/18 09:21:44;;;;;;;10.05;5.35;;;19.20;99.90;;;;;;5044205;28;20131;-72
2023/09/18 09:24:18;;;;;;;10.80;5.63;;;19.20;99.90;;;;;;5050969;28;20127;-72
2023/09/18 09:26:43;;;;;;;8.13;5.03;;;19.20;99.90;;;;;;5059685;28;20102;-72
2023/09/18 09:29:20;;;;;;;11.10;5.43;;;19.20;99.90;;;;;;5045390;28;20254;-72
2023/09/18 09:31:47;;;;;;;9.13;5.80;;;19.30;99.90;;;;;;5046438;28;20044;-72
2023/09/18 09:34:23;;;;;;;;;;;19.30;99.90;;;;;;5046766;28;20109;-71
2023/09/18 09:36:56;;;;;;;7.63;5.45;;;19.30;99.90;;;;;;5056000;28;19924;-72
2023/09/18 09:39:24;;;;;;;9.27;5.80;;;19.30;99.90;;;;;;5050577;28;20044;-72
2023/09/18 09:41:53;;;;;;;9.48;5.50;;;19.40;99.90;;;;;;5059382;28;20048;-71
2023/09/18 09:44:20;;;;;;;11.95;5.72;;;19.40;99.90;;;;;;5049409;28;20260;-72
2023/09/18 09:46:51;;;;;;;9.68;5.15;;;19.50;99.90;;;;;;5032987;28;20051;-71
2023/09/18 09:49:19;;;;;;;9.25;5.63;;;19.50;99.90;;;;;;5014888;28;20044;-72
2023/09/18 09:51:46;;;;;;;11.57;6.20;;;19.60;99.90;;;;;;5047351;28;20033;-71
2023/09/18 09:54:13;;;;;;;10.63;5.72;;;19.60;99.90;;;;;;5050041;28;20098;-72
2023/09/18 09:56:50;;;;;;;8.68;6.32;;;19.70;99.90;;;;;;5066221;28;20033;-71
2023/09/18 09:59:18;;;;;;;10.32;7.00;;;19.70;99.90;;;;;;5048067;28;20086;-71
2023/09/18 10:01:50;;;;;;;11.88;6.53;;;19.70;99.90;;;;;;5025259;28;20041;-71
2023/09/18 10:04:18;;;;;;;12.18;6.72;;;19.70;99.90;;;;;;5051997;28;20450;-72
2023/09/18 10:06:53;;;;;;;13.13;7.95;;;19.70;99.90;;;;;;5063234;28;20037;-69
2023/09/18 10:09:20;;;;;;;13.00;8.82;;;19.80;99.90;;;;;;5046161;28;20056;-69
2023/09/18 10:11:51;;;;;;;14.45;7.97;;;19.80;99.90;;;;;;5075665;28;20044;-69
2023/09/18 10:14:19;;;;;;;12.70;7.90;;;19.90;99.90;;;;;;5048800;28;20041;-68
2023/09/18 10:16:56;;;;;;;13.25;8.07;;;19.90;99.90;;;;;;5022750;28;20052;-69
2023/09/18 10:19:44;;;;;;;9.85;7.32;;;19.90;99.90;;;;;;5016604;28;20048;-69
2023/09/18 10:22:37;;;;;;;13.50;7.97;;;20.00;99.90;;;;;;5039155;28;20492;-69
2023/09/18 10:25:17;;;;;;;10.35;7.50;;;20.00;99.90;;;;;;5054817;28;20066;-69
2023/09/18 10:27:53;;;;;;;15.00;7.28;;;20.00;99.90;;;;;;5020824;28;20048;-69
2023/09/18 10:30:22;;;;;;;9.52;6.72;;;20.10;99.90;;;;;;5044386;28;20049;-69
2023/09/18 10:32:49;;;;;;;12.52;7.50;;;20.10;99.90;;;;;;5025922;28;20242;-69
2023/09/18 10:35:15;;;;;;;10.38;6.72;;;20.10;99.90;;;;;;5043514;28;20404;-69
2023/09/18 10:37:45;;;;;;;10.52;6.03;;;20.20;99.90;;;;;;5065353;28;20677;-69
2023/09/18 10:40:12;;;;;;;10.45;5.70;;;20.30;99.90;;;;;;5064724;28;20051;-69
2023/09/18 10:42:39;;;;;;;8.73;5.75;;;20.50;99.90;;;;;;5062441;28;20047;-69
2023/09/18 10:45:10;;;;;;;11.00;5.63;;;20.70;99.90;;;;;;5063794;28;20052;-70
2023/09/18 10:47:43;;;;;;;7.35;5.72;;;20.90;99.90;;;;;;5047708;28;20028;-69
2023/09/18 10:50:09;;;;;;;9.70;5.47;;;21.00;99.90;;;;;;5054249;28;20047;-70
2023/09/18 10:52:37;;;;;;;9.70;5.15;;;21.10;99.90;;;;;;5045889;28;20045;-69
2023/09/18 10:55:04;;;;;;;8.95;5.07;;;21.20;99.90;;;;;;5047113;28;20033;-69
2023/09/18 10:57:37;;;;;;;5.78;4.38;;;21.10;99.90;;;;;;5062449;28;20132;-70
2023/09/18 11:00:13;;;;;;;8.68;4.50;;;21.10;99.90;;;;;;5042296;28;20051;-70
2023/09/18 11:02:40;;;;;;;7.70;4.73;;;21.00;99.90;;;;;;5044126;28;20044;-72
2023/09/18 11:05:06;;;;;;;7.50;4.25;;;21.00;99.90;;;;;;5051726;28;20082;-70
2023/09/18 11:07:32;;;;;;;4.88;3.80;;;21.00;99.90;;;;;;5041665;28;20040;-68
2023/09/18 11:09:58;;;;;;;;;;;21.10;99.90;;;;;;5049969;28;20055;-68
2023/09/18 11:12:44;;;;;;;4.93;3.75;;;21.10;99.90;;;;;;5047630;28;19927;-71
2023/09/18 11:15:25;;;;;;;4.78;3.05;;;21.20;99.90;;;;;;5063598;28;20048;-71
2023/09/18 11:18:05;;;;;;;6.20;3.45;;;21.40;99.90;;;;;;5062648;28;20331;-71
2023/09/18 11:20:31;;;;;;;4.80;3.22;;;21.60;99.90;;;;;;5040954;28;20222;-70
2023/09/18 11:23:12;;;;;;;;;;;21.70;99.90;;;;;;5040871;28;20585;-69
2023/09/18 11:25:38;;;;;;;4.78;3.38;;;21.70;99.90;;;;;;5024696;28;20017;-70
2023/09/18 11:28:34;;;;;;;5.07;2.90;;;21.70;99.90;;;;;;5026164;28;20463;-70
2023/09/18 11:31:03;;;;;;;4.43;3.03;;;21.70;99.90;;;;;;5035249;28;20135;-70
2023/09/18 11:33:45;;;;;;;4.55;2.83;;;21.80;99.90;;;;;;5044402;28;20507;-70
2023/09/18 11:36:30;;;;;;;5.50;2.38;;;21.90;99.90;;;;;;5042940;28;20583;-70
2023/09/18 11:39:03;;;;;;;5.32;2.90;;;21.90;99.90;;;;;;5047283;28;20342;-70
2023/09/18 11:41:34;;;;;;;4.80;2.88;;;22.00;99.90;;;;;;5041061;28;20076;-70
2023/09/18 11:44:18;;;;;;;5.20;2.70;;;22.00;99.90;;;;;;5055569;28;20837;-70
2023/09/18 11:46:51;;;;;;;4.53;3.08;;;22.10;99.90;;;;;;5032324;28;20411;-71
2023/09/18 11:49:26;;;;;;;5.85;2.78;;;22.10;99.90;;;;;;5040403;28;20057;-70
2023/09/18 11:51:52;;;;;;;4.30;2.45;;;22.20;99.90;;;;;;5037107;28;20090;-70
2023/09/18 11:54:18;;;;;;;8.85;2.72;;;22.30;99.90;;;;;;5027510;28;20449;-70
2023/09/18 11:56:44;;;;;;;;;;;22.40;99.90;;;;;;5044307;28;20047;-70
2023/09/18 11:59:12;;;;;;;7.05;2.58;;;22.50;99.90;;;;;;5041957;28;20269;-70
2023/09/18 12:01:40;;;;;;;4.95;2.92;;;22.60;99.90;;;;;;5039876;28;20040;-71
2023/09/18 12:04:15;;;;;;;7.97;2.80;;;22.70;99.90;;;;;;5059283;28;20389;-70
2023/09/18 12:06:44;;;;;;;4.85;3.00;;;22.60;99.90;;;;;;5055943;28;20102;-70
2023/09/18 12:09:12;;;;;;;5.28;2.70;;;22.50;99.90;;;;;;5044376;28;20064;-70
2023/09/18 12:11:42;;;;;;;7.03;3.28;;;22.40;99.90;;;;;;5041139;28;20068;-70
2023/09/18 12:14:07;;;;;;;3.25;2.67;;;22.20;99.90;;;;;;5023696;28;20036;-70
2023/09/18 12:16:43;;;;;;;;;;;22.10;99.90;;;;;;5038153;28;20595;-70
2023/09/18 12:19:16;;;;;;;3.95;2.40;;;22.00;99.90;;;;;;5039707;28;20288;-70
2023/09/18 12:21:46;;;;;;;3.83;2.22;;;22.00;99.90;;;;;;5039241;28;20058;-70
2023/09/18 12:24:22;;;;;;;6.20;2.85;;;22.00;99.90;;;;;;5040813;28;20123;-70
2023/09/18 12:26:48;;;;;;;5.13;2.35;;;22.10;99.90;;;;;;5038603;28;20048;-69
2023/09/18 12:29:14;;;;;;;;;;;22.10;99.90;;;;;;5040138;28;20043;-69
2023/09/18 12:31:40;;;;;;;4.40;2.70;;;22.20;99.90;;;;;;5040885;28;19923;-70
2023/09/18 12:34:15;;;;;;;4.32;2.47;;;22.20;99.90;;;;;;5038226;28;20123;-70
2023/09/18 12:36:48;;;;;;;3.42;2.60;;;22.10;99.90;;;;;;5046685;28;20072;-70
2023/09/18 12:39:18;;;;;;;5.22;2.67;;;22.20;99.90;;;;;;5052157;28;20036;-70
2023/09/18 12:41:45;;;;;;;6.55;2.28;;;22.30;99.90;;;;;;5040962;28;20048;-70
2023/09/18 12:44:11;;;;;;;4.13;2.72;;;22.30;99.90;;;;;;5041662;28;20360;-69